Golden City, MO (64748)

1:06 PM CDT on July 28, 2014 (GMT -0500)
Greenfield West (WOHSN) (KMOGREEN5) Elev 1066 ft | 37.42 °N, 93.85 °W | Change Station

Current weather conditions updated 6 minutes ago

Clear
Clear
82.4 °F
Feels Like 84 °F
N
4.2
Wind Variable Wind from SSW

Today is forecast to be Much Warmer than yesterday.

Today
High -- | Low -- °F
--% Chance of Precip.
Yesterday
High -- | Low -- °F
Precip. -- in
6:17 AM 8:27 PM
Waxing Crescent, 3% visible
Pressure 30.18 in
Visibility 10.0 miles
Clouds Clear
Heat Index 84 °F
Dew Point 63 °F
Humidity 52%
Rainfall 0.00 in
Snow Depth Not available.
UV 12 out of 12
Pollen 6.60 out of 12
Air Quality Not available.
Flu Activity Not available.
METAR KJLN 281753Z COR 34011G17KT 10SM CLR 28/14 A3021 RMK AO2 SLP220 T02780139 10283 20156 58002

More Conditions Fewer Conditions

Pressure 30.18 in
Visibility 10.0 miles
Clouds Clear
Heat Index 84 °F
Dew Point 63 °F
Humidity 52%
Rainfall 0.00 in
Snow Depth Not available.
UV 12 out of 12
Pollen 6.60 out of 12
Air Quality Not available.
Flu Activity Not available.
METAR KJLN 281753Z COR 34011G17KT 10SM CLR 28/14 A3021 RMK AO2 SLP220 T02780139 10283 20156 58002

More Conditions Fewer Conditions

10-Day Weather Forecast

Almanac

Astronomy

Jul. 28, 2014 Rise Set
Actual Time 6:17 AM CDT 8:27 PM CDT
Civil Twilight 5:48 AM CDT 8:56 PM CDT
Nautical Twilight 5:12 AM CDT 9:32 PM CDT
Astronomical Twilight 4:33 AM CDT 10:11 PM CDT
Moon 7:56 AM CDT 9:13 PM CDT
Length of Visible Light 15h 08m
Length of Day
14h 10m
Tomorrow will be 1m 42s shorter.
Waxing Crescent, 3% of the Moon is Illuminated
Today
Waxing Crescent
Aug 3
First Quarter
Aug 10
Full
Aug 17
Last Quarter
Aug 25
New

Today's Extremes

State Highs State Lows

Community

WunderPhotos

Upload Photos

1,738,429 photos uploaded!

WunderBlogs® & News

Nearby

Snow Depth

Station Depth Elevation
No new snow has been reported.

Earthquake Activity

City Distance Mag. Time & Date
No recent earthquake activity has been reported nearby.
Minimum magnitude displayed is 2.5.

Coastal Water Temperatures

Place Temperature
No Stations Reporting

Nearby Weather Stations

Station Location Temp. Heat Index Dew Point Humidity Wind Precip. Elev Updated Type
Greenfield West (WOHSN), Greenfield, MO 82.4 °F 84 °F 63 °F 52% SSW  at  4.2 mph - / hr 1066 ft 12:59 PM CDT Normal
RAWS MT VERNON MO, La Russell, MO 79 °F 80 °F 58 °F 48% NNW  at  10 mph 0.00 in / hr 1266 ft 12:00 PM CDT MADIS
Irwin, MO, Lamar, MO 78.1 °F 80 °F 64 °F 62% NNE  at  4.0 mph 0.00 in / hr 955 ft 12:56 PM CDT Normal

Show More Stations Show Fewer Stations